Time;durP1;ratioP1;P1;durP2;ratioP2;P2;SDS_P1;SDS_P2;PMS_P1;PMS_P2;Temp;Humidity;BMP_temperature;BMP_pressure;BME280_temperature;BME280_humidity;BME280_pressure;Samples;Min_cycle;Max_cycle;Signal;HPM_P1;HPM_P2
2021/10/15 00:00:46;;;;;;;1.88;0.80;;;;;;;25.98;33.94;97019.28;4988908;28;20080;-30
2021/10/15 00:03:12;;;;;;;1.50;1.00;;;;;;;25.98;33.75;97016.66;4971237;28;20042;-32
2021/10/15 00:05:37;;;;;;;1.42;0.93;;;;;;;25.99;33.74;97015.72;4989710;28;20033;-29
2021/10/15 00:08:03;;;;;;;2.00;1.10;;;;;;;25.98;33.76;97016.66;4989307;28;20096;-28
2021/10/15 00:10:28;;;;;;;2.15;1.20;;;;;;;25.98;33.76;97013.19;4982185;28;20033;-29
2021/10/15 00:12:54;;;;;;;1.13;0.75;;;;;;;25.98;33.90;97008.78;4962151;28;20044;-28
2021/10/15 00:15:19;;;;;;;1.95;0.90;;;;;;;25.98;33.90;97011.41;4991857;28;20563;-32
2021/10/15 00:17:44;;;;;;;1.15;0.90;;;;;;;25.97;33.69;97004.44;4985959;28;20076;-29
2021/10/15 00:20:10;;;;;;;1.20;0.98;;;;;;;25.97;33.83;97004.44;4988082;28;20974;-29
2021/10/15 00:22:36;;;;;;;1.10;0.80;;;;;;;25.98;33.81;97006.16;4968435;28;20036;-32
2021/10/15 00:25:01;;;;;;;1.42;0.80;;;;;;;25.97;33.74;96993.94;4985644;28;20370;-30
2021/10/15 00:27:27;;;;;;;1.33;0.90;;;;;;;25.96;33.74;96992.25;4982539;28;20033;-32
2021/10/15 00:29:52;;;;;;;1.83;0.93;;;;;;;25.97;33.83;96993.94;4984381;28;20045;-29
2021/10/15 00:32:17;;;;;;;2.05;0.90;;;;;;;25.96;33.72;97001.00;4983137;28;20095;-32
2021/10/15 00:34:43;;;;;;;1.70;0.73;;;;;;;25.96;33.89;96993.09;4984233;28;20026;-27
2021/10/15 00:37:09;;;;;;;0.73;0.73;;;;;;;25.96;33.69;96990.47;4967968;28;20530;-28
2021/10/15 00:39:34;;;;;;;1.67;1.08;;;;;;;25.94;33.85;96989.69;4975564;28;20038;-28
2021/10/15 00:42:00;;;;;;;1.52;1.02;;;;;;;25.96;33.71;96982.59;4981838;28;20033;-30
2021/10/15 00:44:25;;;;;;;1.30;0.80;;;;;;;25.96;33.70;96987.00;4984195;28;20120;-34
2021/10/15 00:46:51;;;;;;;2.05;0.88;;;;;;;25.96;33.73;96981.75;4987688;28;20037;-32
2021/10/15 00:49:16;;;;;;;3.20;0.80;;;;;;;25.96;33.84;96984.38;4989253;28;20038;-28
2021/10/15 00:51:42;;;;;;;1.60;1.00;;;;;;;25.94;33.85;96973.09;4987760;28;20605;-32
2021/10/15 00:54:09;;;;;;;0.95;0.80;;;;;;;25.94;33.75;96973.94;4985654;28;20484;-32
2021/10/15 00:56:35;;;;;;;3.67;1.10;;;;;;;25.95;33.63;96969.56;4980851;28;20034;-33
2021/10/15 00:59:01;;;;;;;1.45;0.85;;;;;;;25.94;33.74;96968.69;4969317;28;20032;-27
2021/10/15 01:01:26;;;;;;;2.03;0.80;;;;;;;25.95;33.81;96973.03;4983152;28;20033;-31
2021/10/15 01:03:52;;;;;;;1.83;1.00;;;;;;;25.95;33.67;96975.66;4970061;28;20026;-30
2021/10/15 01:06:17;;;;;;;1.10;0.63;;;;;;;25.94;33.83;96968.69;4979362;28;20068;-34
2021/10/15 01:08:46;;;;;;;1.92;1.10;;;;;;;25.94;33.81;96963.44;4981715;28;20852;-27
2021/10/15 01:11:15;;;;;;;1.73;0.98;;;;;;;25.93;33.78;96951.25;4981871;28;20603;-31
2021/10/15 01:13:40;;;;;;;10.50;1.27;;;;;;;25.94;33.75;96955.56;4979905;28;20678;-27
2021/10/15 01:16:06;;;;;;;1.15;0.80;;;;;;;25.94;33.64;96954.72;4967933;28;20117;-30
2021/10/15 01:18:32;;;;;;;1.35;0.80;;;;;;;25.93;33.83;96953.03;4985511;28;20113;-30
2021/10/15 01:20:57;;;;;;;1.67;1.17;;;;;;;25.93;33.88;96953.03;4983247;28;20191;-29
2021/10/15 01:23:23;;;;;;;1.38;1.02;;;;;;;25.92;33.70;96953.94;4979462;28;20068;-29
2021/10/15 01:25:51;;;;;;;1.02;0.90;;;;;;;25.93;33.75;96950.41;4980439;28;20518;-33
2021/10/15 01:28:16;;;;;;;1.38;1.00;;;;;;;25.91;33.85;96947.00;4996480;28;20049;-30
2021/10/15 01:30:41;;;;;;;1.13;0.80;;;;;;;25.92;33.81;96944.31;4982314;28;21019;-29
2021/10/15 01:33:07;;;;;;;1.30;0.90;;;;;;;25.93;33.79;96942.53;4983405;28;20710;-32
2021/10/15 01:35:32;;;;;;;1.58;0.75;;;;;;;25.92;33.60;96943.44;4980792;28;20042;-34
2021/10/15 01:37:58;;;;;;;1.42;1.00;;;;;;;25.93;33.72;96940.75;4985033;28;20064;-29
2021/10/15 01:40:23;;;;;;;1.00;0.82;;;;;;;25.92;33.74;96932.94;4978102;28;20042;-30
2021/10/15 01:42:54;;;;;;;1.35;1.10;;;;;;;25.91;33.83;96926.84;4980927;28;20655;-30
2021/10/15 01:45:23;;;;;;;1.42;1.02;;;;;;;25.91;33.79;96926.84;4974380;28;20891;-31
2021/10/15 01:47:49;;;;;;;2.58;0.80;;;;;;;25.91;33.84;96920.75;4986854;28;20030;-30
2021/10/15 01:50:15;;;;;;;2.13;1.10;;;;;;;25.91;33.84;96926.00;4979681;28;20057;-27
2021/10/15 01:52:41;;;;;;;1.17;0.80;;;;;;;25.90;33.64;96911.19;4980187;28;20032;-32
2021/10/15 01:55:07;;;;;;;0.85;0.80;;;;;;;25.92;33.79;96914.56;4987967;28;20563;-28
2021/10/15 01:57:32;;;;;;;1.38;0.90;;;;;;;25.91;33.81;96915.50;4980966;28;20518;-31
2021/10/15 01:59:58;;;;;;;1.02;0.80;;;;;;;25.90;33.86;96905.94;4986179;28;20037;-32
2021/10/15 02:02:23;;;;;;;1.08;0.70;;;;;;;25.89;33.71;96906.88;4985627;28;20540;-34
2021/10/15 02:04:49;;;;;;;1.08;0.80;;;;;;;25.90;33.74;96903.31;4986882;28;20485;-31
2021/10/15 02:07:14;;;;;;;1.20;0.75;;;;;;;25.90;33.58;96898.06;4986275;28;20080;-32
2021/10/15 02:09:39;;;;;;;1.23;0.90;;;;;;;25.86;33.76;96892.13;4987002;28;20037;-31
2021/10/15 02:12:06;;;;;;;1.00;0.88;;;;;;;25.89;33.76;96897.19;4986791;28;20037;-29
2021/10/15 02:14:31;;;;;;;1.58;1.10;;;;;;;25.89;33.72;96897.19;5001478;28;20609;-28
2021/10/15 02:16:57;;;;;;;1.15;0.70;;;;;;;25.87;33.70;96887.69;4987906;28;20030;-29
2021/10/15 02:19:22;;;;;;;1.08;0.82;;;;;;;25.88;33.76;96892.88;4970002;28;20157;-28
2021/10/15 02:21:47;;;;;;;1.50;0.70;;;;;;;25.87;33.87;96887.69;4983360;28;20026;-29
2021/10/15 02:24:13;;;;;;;1.55;0.93;;;;;;;25.88;33.78;96884.13;4988915;28;20136;-30
2021/10/15 02:26:38;;;;;;;2.13;0.82;;;;;;;25.87;33.74;96883.31;4987001;28;20116;-31
2021/10/15 02:29:04;;;;;;;1.77;0.98;;;;;;;25.87;33.65;96883.31;4986479;28;20045;-33
2021/10/15 02:31:29;;;;;;;0.80;0.80;;;;;;;25.87;33.72;96878.06;4981544;28;20314;-35
2021/10/15 02:33:55;;;;;;;1.23;0.88;;;;;;;25.87;33.69;96880.69;4985538;28;20062;-31
2021/10/15 02:36:20;;;;;;;1.00;0.90;;;;;;;25.87;33.81;96866.69;4986348;28;20576;-29
2021/10/15 02:38:46;;;;;;;1.10;0.80;;;;;;;25.88;33.75;96873.63;4985180;28;20030;-29
2021/10/15 02:41:11;;;;;;;0.88;0.70;;;;;;;25.89;33.78;96864.84;4983717;28;20057;-29
2021/10/15 02:43:37;;;;;;;1.45;0.65;;;;;;;25.87;33.65;96861.44;4983718;28;20041;-29
2021/10/15 02:46:02;;;;;;;0.98;0.80;;;;;;;25.86;33.67;96857.13;4983155;28;20400;-29
2021/10/15 02:48:28;;;;;;;2.30;0.80;;;;;;;25.86;33.70;96855.38;4985154;28;20021;-28
2021/10/15 02:50:53;;;;;;;1.02;0.90;;;;;;;25.87;33.77;96851.81;4985391;28;20420;-29
2021/10/15 02:53:18;;;;;;;1.58;0.77;;;;;;;25.87;33.81;96851.81;4984561;28;21184;-31
2021/10/15 02:55:44;;;;;;;1.98;0.88;;;;;;;25.86;33.81;96844.00;4988235;28;20040;-35
2021/10/15 02:58:09;;;;;;;1.08;0.85;;;;;;;25.86;33.76;96844.88;4983065;28;20030;-30
2021/10/15 03:00:35;;;;;;;0.90;0.73;;;;;;;25.85;33.59;96839.69;4983649;28;20030;-33
2021/10/15 03:03:00;;;;;;;1.00;0.80;;;;;;;25.85;33.80;96837.91;4969516;28;20756;-31
2021/10/15 03:05:25;;;;;;;1.08;0.80;;;;;;;25.85;33.64;96837.91;4986586;28;20045;-31
2021/10/15 03:07:51;;;;;;;1.55;0.85;;;;;;;25.85;33.60;96837.06;4978018;28;20115;-31
2021/10/15 03:10:16;;;;;;;1.10;1.00;;;;;;;25.83;33.59;96840.59;4982241;28;20026;-28
2021/10/15 03:12:42;;;;;;;0.80;0.80;;;;;;;25.84;33.66;96833.59;4960982;28;20038;-29
2021/10/15 03:15:08;;;;;;;1.08;0.70;;;;;;;25.83;33.75;96830.09;4972156;28;20030;-29
2021/10/15 03:17:33;;;;;;;2.40;0.88;;;;;;;25.83;33.66;96824.84;4983679;28;20025;-27
2021/10/15 03:19:59;;;;;;;1.60;0.80;;;;;;;25.83;33.71;96829.28;4982680;28;20017;-32
2021/10/15 03:22:24;;;;;;;1.80;0.80;;;;;;;25.83;33.72;96830.09;4982469;28;20022;-31
2021/10/15 03:24:49;;;;;;;1.45;0.88;;;;;;;25.82;33.67;96825.78;4986543;28;20474;-29
2021/10/15 03:27:15;;;;;;;1.38;0.90;;;;;;;25.82;33.67;96823.16;4986463;28;20009;-30
2021/10/15 03:29:40;;;;;;;0.70;0.70;;;;;;;25.83;33.70;96821.41;4989935;28;20550;-28
2021/10/15 03:32:06;;;;;;;1.00;0.75;;;;;;;25.83;33.71;96824.84;4987253;28;20038;-32
2021/10/15 03:34:31;;;;;;;1.55;0.80;;;;;;;25.81;33.70;96824.09;4987080;28;20121;-29
2021/10/15 03:36:57;;;;;;;1.13;0.80;;;;;;;25.82;33.55;96823.16;4977648;28;20033;-30
2021/10/15 03:39:22;;;;;;;1.15;0.80;;;;;;;25.81;33.60;96824.09;4980086;28;20025;-27
2021/10/15 03:41:47;;;;;;;1.45;0.75;;;;;;;25.81;33.70;96826.72;4986995;28;20056;-31
2021/10/15 03:44:13;;;;;;;1.60;0.88;;;;;;;25.82;33.66;96823.16;4977674;28;20599;-27
2021/10/15 03:46:38;;;;;;;0.80;0.70;;;;;;;25.82;33.65;96825.78;4981626;28;20030;-29
2021/10/15 03:49:03;;;;;;;1.83;0.90;;;;;;;25.81;33.57;96821.47;4983330;28;20038;-30
2021/10/15 03:51:29;;;;;;;2.45;0.80;;;;;;;25.80;33.70;96825.03;4984624;28;20018;-30
2021/10/15 03:53:54;;;;;;;0.95;0.80;;;;;;;25.80;33.58;96818.91;4987677;28;20026;-27
2021/10/15 03:56:20;;;;;;;0.60;0.60;;;;;;;25.80;33.75;96818.91;4989928;28;20045;-32
2021/10/15 03:58:45;;;;;;;1.00;0.90;;;;;;;25.81;33.68;96818.00;4988096;28;20034;-32
2021/10/15 04:01:10;;;;;;;0.80;0.73;;;;;;;25.80;33.73;96814.53;4983611;28;20026;-27
2021/10/15 04:03:36;;;;;;;3.50;0.80;;;;;;;25.80;33.56;96803.16;4988911;28;20038;-31
2021/10/15 04:06:01;;;;;;;1.10;0.93;;;;;;;25.80;33.58;96806.66;4987610;28;20026;-29
2021/10/15 04:08:26;;;;;;;0.60;0.60;;;;;;;25.79;33.67;96807.59;4987951;28;20076;-30
2021/10/15 04:10:52;;;;;;;1.00;0.90;;;;;;;25.79;33.58;96802.34;4988566;28;20038;-33
2021/10/15 04:13:17;;;;;;;1.08;0.70;;;;;;;25.78;33.67;96805.88;5004754;28;20023;-29
2021/10/15 04:15:43;;;;;;;0.68;0.68;;;;;;;25.77;33.55;96798.94;4984830;28;20030;-29
2021/10/15 04:18:08;;;;;;;0.88;0.85;;;;;;;25.77;33.53;96793.69;4987146;28;20080;-29
2021/10/15 04:20:34;;;;;;;0.70;0.70;;;;;;;25.77;33.53;96793.69;4986629;28;20084;-30
2021/10/15 04:22:59;;;;;;;0.82;0.77;;;;;;;25.77;33.62;96796.31;4987853;28;20033;-33
2021/10/15 04:25:24;;;;;;;0.70;0.70;;;;;;;25.77;33.57;96788.44;4986784;28;20018;-34
2021/10/15 04:27:50;;;;;;;1.05;0.60;;;;;;;25.76;33.63;96792.00;4987772;28;20030;-31
2021/10/15 04:30:15;;;;;;;1.45;0.90;;;;;;;25.77;33.60;96792.81;4986751;28;21034;-29
2021/10/15 04:32:41;;;;;;;0.90;0.63;;;;;;;25.77;33.54;96792.81;5000314;28;20309;-29
2021/10/15 04:35:06;;;;;;;3.10;0.90;;;;;;;25.77;33.71;96788.44;5000718;28;20031;-30
2021/10/15 04:37:32;;;;;;;0.90;0.85;;;;;;;25.77;33.77;96788.44;4985757;28;20072;-33
2021/10/15 04:39:57;;;;;;;0.93;0.70;;;;;;;25.78;33.65;96794.53;4982971;28;20096;-33
2021/10/15 04:42:23;;;;;;;1.33;0.95;;;;;;;25.77;33.62;96788.44;4988815;28;20030;-31
2021/10/15 04:44:48;;;;;;;1.30;1.00;;;;;;;25.77;33.52;96793.69;4994258;28;20925;-32
2021/10/15 04:47:14;;;;;;;2.15;0.77;;;;;;;25.78;33.62;96784.03;4976951;28;20611;-30
2021/10/15 04:49:39;;;;;;;0.70;0.70;;;;;;;25.76;33.52;96784.13;5001825;28;20037;-33
2021/10/15 04:52:05;;;;;;;0.90;0.77;;;;;;;25.76;33.55;96781.50;4988116;28;21047;-29
2021/10/15 04:54:31;;;;;;;1.20;1.10;;;;;;;25.76;33.60;96783.25;4975166;28;20354;-29
2021/10/15 04:56:56;;;;;;;1.13;0.90;;;;;;;25.75;33.57;96776.31;4975570;28;20040;-37
2021/10/15 04:59:21;;;;;;;1.10;0.88;;;;;;;25.75;33.71;96768.44;4975068;28;20704;-31
2021/10/15 05:01:47;;;;;;;1.02;0.70;;;;;;;25.75;33.62;96764.06;4975527;28;20041;-30
2021/10/15 05:04:13;;;;;;;0.70;0.70;;;;;;;25.72;33.76;96755.47;4974727;28;20165;-29
2021/10/15 05:06:39;;;;;;;0.80;0.80;;;;;;;25.75;33.68;96758.81;4971891;28;20137;-30
2021/10/15 05:11:33;;;;;;;0.85;0.75;;;;;;;25.74;33.56;96756.25;4992139;28;20030;-30
2021/10/15 05:14:00;;;;;;;1.00;0.70;;;;;;;25.74;33.55;96766.75;4973214;28;20084;-29
2021/10/15 05:16:25;;;;;;;2.85;0.82;;;;;;;25.75;33.53;96763.19;4978441;28;20124;-36
2021/10/15 05:18:51;;;;;;;1.13;0.70;;;;;;;25.74;33.52;96757.09;4977942;28;20116;-31
2021/10/15 05:21:17;;;;;;;1.00;0.80;;;;;;;25.75;33.63;96761.44;4989296;28;20367;-32
2021/10/15 05:23:42;;;;;;;1.60;1.05;;;;;;;25.75;33.50;96752.69;4975264;28;20028;-29
2021/10/15 05:26:07;;;;;;;1.15;0.80;;;;;;;25.74;33.65;96757.09;4978669;28;20037;-33
2021/10/15 05:28:33;;;;;;;0.95;0.80;;;;;;;25.74;33.63;96766.75;4979556;28;20277;-31
2021/10/15 05:30:58;;;;;;;0.75;0.73;;;;;;;25.74;33.59;96767.59;4986398;28;20065;-30
2021/10/15 05:33:24;;;;;;;1.65;0.80;;;;;;;25.73;33.64;96765.91;4983722;28;20034;-34
2021/10/15 05:35:49;;;;;;;0.70;0.70;;;;;;;25.73;33.51;96765.91;4986634;28;20038;-28
2021/10/15 05:38:15;;;;;;;0.73;0.70;;;;;;;25.71;33.60;96762.53;4982368;28;20054;-26
2021/10/15 05:40:40;;;;;;;1.90;1.10;;;;;;;25.73;33.63;96768.53;4984623;28;20017;-33
2021/10/15 05:43:06;;;;;;;0.70;0.70;;;;;;;25.73;33.72;96771.16;4987053;28;20034;-31
2021/10/15 05:45:31;;;;;;;1.08;0.80;;;;;;;25.73;33.61;96765.06;4985475;28;20025;-31
2021/10/15 05:47:57;;;;;;;1.23;0.93;;;;;;;25.72;33.65;96773.84;4979458;28;20666;-28
2021/10/15 05:50:24;;;;;;;0.80;0.77;;;;;;;25.71;33.48;96767.78;4963318;28;20037;-30
2021/10/15 05:52:50;;;;;;;0.50;0.50;;;;;;;25.70;33.52;96773.94;4986667;28;20325;-29
2021/10/15 06:00:28;;;;;;;1.98;0.90;;;;;;;25.70;33.59;96771.31;4979451;28;20092;-35
2021/10/15 06:02:53;;;;;;;2.95;0.80;;;;;;;25.70;33.56;96776.56;4987273;28;20401;-29
2021/10/15 06:16:17;;;;;;;2.45;1.90;;;;;;;25.60;31.36;96780.59;4982784;28;20040;-32
2021/10/15 06:18:51;;;;;;;3.40;1.88;;;;;;;25.55;31.04;96779.03;4985961;28;20026;-32
2021/10/15 06:21:17;;;;;;;11.40;3.55;;;;;;;25.52;31.44;96779.19;4985846;28;20129;-32
2021/10/15 06:23:42;;;;;;;8.05;3.40;;;;;;;25.52;32.03;96776.56;4986021;28;20034;-29
2021/10/15 06:26:07;;;;;;;9.02;3.28;;;;;;;25.52;32.13;96780.97;4988440;28;20042;-31
2021/10/15 06:28:33;;;;;;;9.10;3.10;;;;;;;25.51;32.35;96782.75;4987868;28;20029;-31
2021/10/15 06:30:58;;;;;;;16.38;3.20;;;;;;;25.51;32.46;96781.91;4986173;28;20022;-31
2021/10/15 06:33:24;;;;;;;10.68;3.72;;;;;;;25.51;32.53;96785.38;4980204;28;20026;-29
2021/10/15 06:35:49;;;;;;;15.18;4.22;;;;;;;25.52;32.70;96779.19;4958900;28;21263;-27
2021/10/15 06:38:15;;;;;;;13.13;4.07;;;;;;;25.51;32.79;96774.88;4979846;28;20602;-34
2021/10/15 06:40:40;;;;;;;10.70;4.03;;;;;;;25.53;32.99;96778.28;4980332;28;20491;-29
2021/10/15 06:43:07;;;;;;;11.43;4.25;;;;;;;25.52;33.11;96778.34;4980123;28;20069;-30
2021/10/15 06:45:33;;;;;;;12.02;4.15;;;;;;;25.55;32.84;96781.66;4979740;28;20026;-32
2021/10/15 06:47:58;;;;;;;10.77;4.32;;;;;;;25.55;32.94;96794.78;4979057;28;20766;-30
2021/10/15 06:50:24;;;;;;;9.38;4.00;;;;;;;25.56;32.92;96787.78;4979763;28;20134;-31
2021/10/15 06:52:49;;;;;;;10.77;4.15;;;;;;;25.56;32.97;96786.00;4977894;28;20029;-28
2021/10/15 06:55:16;;;;;;;18.45;4.50;;;;;;;25.57;32.99;96786.88;4980708;28;20034;-31
2021/10/15 06:57:41;;;;;;;10.20;3.70;;;;;;;25.59;33.10;96784.16;4982383;28;20022;-31
2021/10/15 07:00:07;;;;;;;9.57;3.67;;;;;;;25.59;33.33;96786.78;4982331;28;20522;-29
2021/10/15 07:02:33;;;;;;;11.18;4.20;;;;;;;25.60;33.08;96785.84;4988250;28;20033;-28
2021/10/15 07:04:58;;;;;;;9.18;3.40;;;;;;;25.60;33.37;96786.72;4983764;28;20026;-32
2021/10/15 07:07:24;;;;;;;11.18;4.15;;;;;;;25.61;33.44;96790.16;4983623;28;21081;-29
2021/10/15 07:09:49;;;;;;;9.63;3.75;;;;;;;25.63;33.18;96788.31;4982507;28;20041;-28
2021/10/15 07:12:14;;;;;;;13.75;4.15;;;;;;;25.62;33.26;96789.25;4981591;28;20021;-29
2021/10/15 07:14:40;;;;;;;8.85;3.17;;;;;;;25.63;33.33;96790.94;4986109;28;20033;-28
2021/10/15 07:17:05;;;;;;;7.40;3.40;;;;;;;25.64;33.37;96787.38;4980883;28;20037;-26
2021/10/15 07:19:31;;;;;;;11.45;3.90;;;;;;;25.66;33.34;96790.78;4983910;28;20389;-29
2021/10/15 07:21:56;;;;;;;8.90;3.30;;;;;;;25.65;33.41;96791.69;4983647;28;21339;-29
2021/10/15 07:24:21;;;;;;;8.35;3.53;;;;;;;25.67;33.49;96800.34;4982530;28;20033;-31
2021/10/15 07:26:47;;;;;;;9.00;3.72;;;;;;;25.68;33.44;96794.19;4981468;28;20034;-31
2021/10/15 07:29:12;;;;;;;8.80;3.83;;;;;;;25.69;33.52;96795.88;4981396;28;20025;-32
2021/10/15 07:31:38;;;;;;;10.43;3.95;;;;;;;25.71;33.47;96801.91;4977087;28;20029;-27
2021/10/15 07:34:05;;;;;;;5.90;3.10;;;;;;;25.70;33.17;96794.94;4983499;28;20788;-32
2021/10/15 07:36:31;;;;;;;6.70;3.17;;;;;;;25.70;32.55;96797.56;4982038;28;20057;-29
2021/10/15 07:38:56;;;;;;;8.00;3.33;;;;;;;25.70;32.74;96798.41;4983193;28;20048;-33
2021/10/15 07:41:21;;;;;;;7.68;3.30;;;;;;;25.70;33.22;96803.66;4982409;28;20042;-33
2021/10/15 07:43:50;;;;;;;7.93;3.30;;;;;;;25.72;33.32;96805.34;4982473;28;20030;-31
2021/10/15 07:46:16;;;;;;;7.22;3.30;;;;;;;25.73;33.35;96810.53;4981491;28;21017;-28
2021/10/15 07:48:41;;;;;;;11.57;3.38;;;;;;;25.74;33.65;96809.59;4983549;28;20148;-30
2021/10/15 07:51:07;;;;;;;6.88;3.10;;;;;;;25.75;33.56;96806.06;4985684;28;20469;-32
2021/10/15 07:53:33;;;;;;;6.22;2.90;;;;;;;25.76;33.51;96807.75;4988373;28;20026;-28
2021/10/15 07:55:58;;;;;;;8.93;2.80;;;;;;;25.78;33.63;96805.88;4986943;28;20044;-33
2021/10/15 07:58:23;;;;;;;8.05;2.92;;;;;;;25.80;33.62;96808.41;4986936;28;20038;-32
2021/10/15 08:00:49;;;;;;;7.63;2.95;;;;;;;25.81;33.71;96812.72;4988990;28;20499;-30
2021/10/15 08:03:14;;;;;;;6.78;2.90;;;;;;;25.82;33.73;96812.66;4991005;28;20045;-31
2021/10/15 08:05:39;;;;;;;7.72;3.10;;;;;;;25.82;33.67;96804.78;4987162;28;20033;-32
2021/10/15 08:08:05;;;;;;;7.70;2.92;;;;;;;25.85;33.75;96806.41;4985861;28;20034;-26
2021/10/15 08:10:30;;;;;;;11.60;2.53;;;;;;;25.85;33.70;96805.56;4993456;28;20915;-31
2021/10/15 08:12:57;;;;;;;5.13;2.58;;;;;;;25.87;33.53;96811.56;4990250;28;20026;-30
2021/10/15 08:15:22;;;;;;;8.70;2.47;;;;;;;25.87;33.55;96808.94;4988479;28;20058;-30
2021/10/15 08:17:48;;;;;;;19.08;3.20;;;;;;;25.87;33.43;96808.94;4987869;28;20032;-33
2021/10/15 08:20:14;;;;;;;9.93;3.15;;;;;;;25.87;33.50;96804.56;4989174;28;20034;-30
2021/10/15 08:22:40;;;;;;;7.07;2.63;;;;;;;25.88;33.69;96808.00;4989515;28;20123;-31
2021/10/15 08:25:06;;;;;;;6.10;2.55;;;;;;;25.88;33.78;96805.38;4989342;28;20038;-31
2021/10/15 08:27:32;;;;;;;9.80;2.72;;;;;;;25.89;33.92;96812.34;4987993;28;20026;-30
2021/10/15 08:29:57;;;;;;;8.68;2.80;;;;;;;25.90;34.08;96814.03;4989253;28;20030;-30
2021/10/15 08:32:23;;;;;;;10.88;2.92;;;;;;;25.90;34.01;96820.13;4987544;28;20030;-32
2021/10/15 08:34:48;;;;;;;12.65;3.33;;;;;;;25.91;34.11;96818.34;4988395;28;20045;-30
2021/10/15 08:37:13;;;;;;;20.80;5.13;;;;;;;25.92;33.95;96813.03;4988111;28;20022;-32
2021/10/15 08:39:39;;;;;;;11.13;3.78;;;;;;;25.91;31.81;96811.34;4986702;28;20037;-31
2021/10/15 08:42:04;;;;;;;7.32;3.33;;;;;;;25.87;29.77;96811.56;4984335;28;20745;-29
2021/10/15 08:44:45;;;;;;;8.23;3.20;;;;;;;25.80;29.09;96819.78;4989467;28;20032;-30
2021/10/15 08:47:12;;;;;;;8.55;3.40;;;;;;;25.72;28.57;96808.84;4991042;28;20129;-29
2021/10/15 08:49:37;;;;;;;9.10;3.15;;;;;;;25.64;28.55;96814.50;4988077;28;20630;-31
2021/10/15 08:52:03;;;;;;;6.82;2.63;;;;;;;25.62;28.68;96815.50;4988142;28;20034;-31
2021/10/15 08:54:31;;;;;;;8.75;3.30;;;;;;;25.60;28.88;96812.09;4988644;28;20037;-30
2021/10/15 08:56:57;;;;;;;9.60;3.22;;;;;;;25.59;29.32;96815.66;4985218;28;20104;-33
2021/10/15 08:59:35;;;;;;;6.15;2.85;;;;;;;25.59;29.20;96811.22;4989972;28;20034;-29
2021/10/15 09:02:02;;;;;;;6.18;2.60;;;;;;;25.61;29.41;96813.78;4987366;28;20066;-32
2021/10/15 09:04:27;;;;;;;8.18;2.75;;;;;;;25.55;29.42;96804.44;4987942;28;20730;-31
2021/10/15 09:06:53;;;;;;;11.48;3.10;;;;;;;25.62;29.42;96815.50;4989167;28;20041;-29
2021/10/15 09:09:27;;;;;;;7.20;2.75;;;;;;;25.59;28.62;96813.03;4985307;28;20037;-31
2021/10/15 09:12:05;;;;;;;7.97;3.13;;;;;;;25.57;28.19;96823.59;4986717;28;20034;-25
2021/10/15 09:14:30;;;;;;;5.03;2.65;;;;;;;25.52;28.04;96815.09;4970306;28;23277;-27
2021/10/15 09:17:07;;;;;;;6.15;2.80;;;;;;;25.47;27.70;96809.25;4983969;28;20034;-33
2021/10/15 09:19:41;;;;;;;6.72;2.80;;;;;;;25.43;27.63;96811.16;4983148;28;20034;-30
2021/10/15 09:22:26;;;;;;;5.43;2.35;;;;;;;25.37;27.47;96812.34;4984357;28;20666;-31
2021/10/15 09:25:11;;;;;;;6.93;2.30;;;;;;;25.33;27.72;96816.03;4984289;28;20456;-32
2021/10/15 09:27:38;;;;;;;4.43;2.15;;;;;;;25.29;27.73;96814.50;4983825;28;20026;-31
2021/10/15 09:30:22;;;;;;;7.05;2.10;;;;;;;25.24;27.86;96801.59;4984730;28;20038;-32
2021/10/15 09:32:50;;;;;;;6.60;2.15;;;;;;;25.23;27.51;96802.53;4984682;28;20026;-31
2021/10/15 09:35:26;;;;;;;4.90;2.30;;;;;;;25.21;27.64;96801.78;4987858;28;20030;-30
2021/10/15 09:38:00;;;;;;;3.72;2.08;;;;;;;25.17;27.59;96797.63;4986115;28;20037;-31
2021/10/15 09:40:26;;;;;;;2.28;1.90;;;;;;;25.20;27.63;96802.69;4986571;28;20375;-29
2021/10/15 09:42:56;;;;;;;3.22;2.17;;;;;;;25.19;27.70;96806.25;4989665;28;20038;-31
2021/10/15 09:45:28;;;;;;;3.30;1.92;;;;;;;25.18;27.63;96804.56;4989437;28;20050;-32
2021/10/15 09:48:00;;;;;;;9.15;2.30;;;;;;;25.18;27.57;96802.75;4986693;28;20022;-28
2021/10/15 09:50:27;;;;;;;2.15;1.83;;;;;;;25.16;27.59;96803.75;4987821;28;20115;-32
2021/10/15 09:53:02;;;;;;;4.03;2.03;;;;;;;25.16;27.69;96802.00;4986160;28;20057;-32
2021/10/15 09:55:31;;;;;;;3.75;2.05;;;;;;;25.17;27.65;96802.84;4987928;28;20132;-31
2021/10/15 09:58:17;;;;;;;4.55;2.30;;;;;;;25.18;27.71;96807.16;4985804;28;20538;-33
2021/10/15 10:00:43;;;;;;;4.03;2.50;;;;;;;25.18;27.59;96804.56;5000483;28;20489;-33
2021/10/15 10:03:09;;;;;;;9.48;2.15;;;;;;;25.16;27.49;96804.63;4989047;28;20149;-30
2021/10/15 10:05:34;;;;;;;6.03;2.30;;;;;;;25.13;27.68;96803.94;4990218;28;20026;-29
2021/10/15 10:08:01;;;;;;;4.18;2.17;;;;;;;25.16;27.56;96814.25;4983449;28;20034;-33
2021/10/15 10:10:28;;;;;;;7.53;2.10;;;;;;;25.14;27.38;96806.47;4986359;28;20124;-32
2021/10/15 10:12:54;;;;;;;4.53;2.30;;;;;;;25.13;27.28;96814.44;4988458;28;20030;-28
2021/10/15 10:15:24;;;;;;;9.55;2.10;;;;;;;25.11;27.28;96800.53;4987731;28;20034;-28
2021/10/15 10:18:00;;;;;;;3.92;2.15;;;;;;;25.10;27.19;96793.59;4984174;28;20030;-27
2021/10/15 10:20:31;;;;;;;3.67;2.10;;;;;;;25.08;27.36;96795.44;4966854;28;20659;-30
2021/10/15 10:23:13;;;;;;;3.70;2.40;;;;;;;25.08;27.38;96798.03;4999672;28;20030;-33
2021/10/15 10:25:39;;;;;;;9.70;2.50;;;;;;;25.09;27.52;96797.16;4977902;28;20455;-35
2021/10/15 10:28:15;;;;;;;3.88;1.90;;;;;;;25.08;27.62;96785.81;4984850;28;20053;-32
2021/10/15 10:30:42;;;;;;;7.85;2.30;;;;;;;25.11;27.67;96784.78;4989263;28;20057;-34
2021/10/15 10:33:07;;;;;;;7.28;2.42;;;;;;;25.13;27.64;96788.22;5002108;28;20026;-31
2021/10/15 10:35:33;;;;;;;6.68;2.05;;;;;;;25.14;27.51;96782.03;4993306;28;20904;-25
2021/10/15 10:38:20;;;;;;;4.00;1.77;;;;;;;25.15;27.60;96781.09;4988208;28;20116;-29
2021/10/15 10:41:01;;;;;;;4.05;1.90;;;;;;;25.17;27.87;96785.34;4990456;28;20029;-32
2021/10/15 10:43:27;;;;;;;3.97;1.90;;;;;;;25.20;27.71;96783.50;5006918;28;20042;-30
2021/10/15 10:46:23;;;;;;;2.90;2.00;;;;;;;25.20;27.53;96776.47;4991795;28;20026;-32
2021/10/15 10:48:49;;;;;;;7.85;1.92;;;;;;;25.21;27.51;96767.69;4989862;28;20054;-31
2021/10/15 10:51:14;;;;;;;5.57;1.65;;;;;;;25.23;27.57;96775.44;4987646;28;20250;-30
2021/10/15 10:54:03;;;;;;;7.47;1.85;;;;;;;25.24;27.85;96775.38;4985620;28;20983;-32
2021/10/15 10:56:38;;;;;;;6.22;2.08;;;;;;;25.25;27.94;96779.69;4959055;28;20038;-31
2021/10/15 10:59:18;;;;;;;3.40;2.00;;;;;;;25.26;27.85;96783.16;4991370;28;20038;-30
2021/10/15 11:01:45;;;;;;;2.75;1.60;;;;;;;25.27;27.77;96777.84;4990426;28;20045;-29
2021/10/15 11:04:36;;;;;;;4.40;2.08;;;;;;;25.28;27.88;96787.41;5006620;28;20566;-31
2021/10/15 11:07:03;;;;;;;7.07;2.25;;;;;;;25.29;28.02;96785.66;4990156;28;20671;-30
2021/10/15 11:09:39;;;;;;;4.07;2.25;;;;;;;25.30;28.00;96787.34;4990368;28;20015;-31
2021/10/15 11:12:05;;;;;;;5.93;3.40;;;;;;;25.29;27.91;96770.75;4989664;28;20029;-31
2021/10/15 11:14:54;;;;;;;3.75;3.05;;;;;;;25.29;27.70;96773.34;4991027;28;20030;-29
2021/10/15 11:17:24;;;;;;;10.98;3.10;;;;;;;25.30;28.03;96768.97;4982633;28;20041;-33
2021/10/15 11:20:24;;;;;;;5.97;2.50;;;;;;;25.30;28.03;96767.22;4982548;28;20034;-29
2021/10/15 11:22:58;;;;;;;4.65;2.33;;;;;;;25.34;28.04;96767.03;4990708;28;20033;-32
2021/10/15 11:25:32;;;;;;;3.63;2.10;;;;;;;25.35;28.14;96761.72;4989887;28;20112;-31
2021/10/15 11:28:03;;;;;;;4.32;2.33;;;;;;;25.36;27.93;96760.78;4984462;28;20026;-32
2021/10/15 11:30:32;;;;;;;4.78;1.95;;;;;;;25.37;27.85;96759.00;4989121;28;20483;-33
2021/10/15 11:32:57;;;;;;;5.60;1.90;;;;;;;25.37;27.76;96754.63;4985138;28;20037;-31
2021/10/15 11:35:28;;;;;;;3.95;1.80;;;;;;;25.38;27.62;96755.47;4989636;28;20034;-30
2021/10/15 11:37:58;;;;;;;3.53;2.50;;;;;;;25.38;27.77;96760.69;4990554;28;20095;-34
2021/10/15 11:40:25;;;;;;;5.03;2.20;;;;;;;25.39;27.72;96754.53;4984466;28;20030;-31
2021/10/15 11:42:51;;;;;;;4.53;2.30;;;;;;;25.39;27.80;96751.91;4984703;28;20516;-35
2021/10/15 11:45:36;;;;;;;3.63;2.10;;;;;;;25.38;27.66;96744.97;4988002;28;20377;-32
2021/10/15 11:48:09;;;;;;;4.05;2.08;;;;;;;25.39;27.69;96739.63;4983614;28;20021;-30
2021/10/15 11:50:36;;;;;;;4.53;2.10;;;;;;;25.38;27.70;96739.72;4982416;28;20037;-30